باتنة, الجزائر

07:48 PM CET on سبتهبر 02, 2014 (GMT +0100)
Mohamed Boudiaf | Change Station
CLOSE
Current Station
Airport
Location: Constantine,
Elevation: 2277 ft
Nearby Weather Stations

Elev 2277 ft 36.28 °N, 6.62 °E | Updated 18 minutes ago

Clear
صافية
73 °F
Feels Like 73 °F
N
7
ريح متغير ريح from NNW

هذا اليوم
High -- | Low -- °F
--% Chance of Precip.
Yesterday
High -- | Low -- °F
Precip. -- في
6:07 AM 7:01 PM
الربع الاول, 54% visible
الضغط 30.01 في
وضوح الرؤية -9999.0 أميال
سحابات
نقطة الندى 50 °F
الرطوبة 44%
Rainfall 0.00 في
عمق الثلج Not available.
الأشعة فوق البنفسجية Not available.
Pollen Not available.
جودة الهواء Not available.
Flu Activity Not available.
METAR DABC 021830Z 34006KT CAVOK 23/10 Q1016

More Conditions Fewer Conditions

الضغط 30.01 في
وضوح الرؤية -9999.0 أميال
سحابات
نقطة الندى 50 °F
الرطوبة 44%
Rainfall 0.00 في
عمق الثلج Not available.
الأشعة فوق البنفسجية Not available.
Pollen Not available.
جودة الهواء Not available.
Flu Activity Not available.
METAR DABC 021830Z 34006KT CAVOK 23/10 Q1016

More Conditions Fewer Conditions

10-Day Weather Forecast

Almanac

علم الفلك

Sep. 02, 2014 Rise Set
Actual Time 6:07 AM CET 7:01 PM CET
Civil Twilight 5:41 AM CET 7:27 PM CET
Nautical Twilight 5:10 AM CET 7:57 PM CET
Astronomical Twilight 4:38 AM CET 8:29 PM CET
قمر 1:22 PM CET 11:54 PM CET
Length Of Visible Light 13h 45m
طول الیوم
12h 53m
Tomorrow will be 2m 10s shorter.
الربع الاول, 54% of the Moon is Illuminated
هذا اليوم
الربع الاول
Sep 8
بدر
Sep 15
الربع الآخر
Sep 24
New
Oct 1
الربع الاول

Today's Extremes

Country Highs Country Lows

Community

WunderPhotos

Upload Photos

1,749,743 photos uploaded!

WunderBlogs® & News

By Dr. Jeff Masters
Director of Meteorology, Weather Underground
By Kari Strenfel
Meteorologist, Weather Underground
By Christopher C. Burt
Weather Historian, Weather Underground
September 2, 2014
September 2, 2014
September 2, 2014

Nearby

جودة الهواء

Not available.

عمق الثلج

Not available.

Earthquake Activity

City Distance Mag. Time & Date
No recent earthquake activity has been reported nearby.
Minimum magnitude displayed is 2.5.

Coastal Water Temperatures

مكان درجات الحرارة
No Stations Reporting

Nearby Weather Stations